Latest Weather Observations for Leigh Creek

IDS60801

Issued at 7:05 pm CST Thursday 17 April 2014 (issued every 30 minutes, with the page automatically refreshed every 10 minutes)

About weather observations | Map of weather stations | Latest weather observations for SA | Other Formats
Station Details ID: 017110 Name: LEIGH CREEK AIRPORT Lat: -30.60 Lon: 138.42 Height: 258.8 m
Data from the previous 72 hours. | See also: Recent months at Leigh Creek
Date/Time
CST
Temp
°C
App
Temp
°C
Dew
Point
Rel
Hum
%
Delta-T
°C
Wind Press
QNH
hPa
Press
MSL
hPa
Rain
since 9 am
mm
Dir
 
Spd
km/h
Gust
km/h
Spd
kts
Gust
kts
17/07:00pm 21.1 17.8 6.2 38 7.6 SSW 13 15 7 8 1021.1 - 0.0
17/06:30pm 22.0 18.8 6.7 37 7.9 SSW 13 15 7 8 1020.6 - 0.0
17/06:00pm 23.4 20.1 6.2 33 8.9 SSW 13 15 7 8 1020.5 1019.9 0.0
17/05:30pm 25.2 21.8 5.9 29 10.0 SSW 13 19 7 10 1020.2 - 0.0
17/05:00pm 26.2 22.9 6.3 28 10.5 SSW 13 20 7 11 1020.1 - 0.0
17/04:30pm 26.6 23.5 5.5 26 11.0 S 11 19 6 10 1020.1 - 0.0
17/04:00pm 26.4 23.9 4.8 25 11.1 SSE 7 17 4 9 1020.1 - 0.0
17/03:30pm 26.5 23.4 5.5 26 10.9 SSW 11 19 6 10 1020.2 - 0.0
17/03:00pm 26.5 23.1 6.0 27 10.7 S 13 24 7 13 1020.2 1019.6 0.0
17/02:30pm 26.6 24.0 6.1 27 10.8 SW 9 15 5 8 1020.4 - 0.0
17/02:00pm 26.2 24.1 6.8 29 10.3 W 7 15 4 8 1020.6 - 0.0
17/01:30pm 26.0 23.5 6.6 29 10.2 WSW 9 28 5 15 1021.1 - 0.0
17/01:00pm 25.8 24.7 6.9 30 10.0 SSE 2 7 1 4 1021.4 - 0.0
17/12:30pm 25.4 23.0 7.1 31 9.7 S 9 17 5 9 1021.9 - 0.0
17/12:00pm 24.9 23.0 7.5 33 9.3 S 7 15 4 8 1022.3 1021.6 0.0
17/11:30am 24.4 23.1 7.5 34 9.0 N 4 13 2 7 1022.8 - 0.0
17/11:00am 23.6 21.5 6.8 34 8.8 NNW 7 15 4 8 1023.1 - 0.0
17/10:30am 23.2 21.4 7.3 36 8.4 N 6 11 3 6 1023.1 - 0.0
17/10:00am 22.5 21.3 7.9 39 7.7 NNW 4 9 2 5 1023.1 - 0.0
17/09:30am 21.5 20.3 8.1 42 7.1 NE 4 9 2 5 1023.1 - 0.0
17/09:00am 19.0 18.6 8.4 50 5.5 CALM 0 0 0 0 1023.0 1022.4 0.0
17/08:30am 17.2 17.0 8.9 58 4.3 CALM 0 0 0 0 1022.8 - 0.0
17/08:00am 15.5 15.3 9.0 65 3.4 CALM 0 0 0 0 1022.5 - 0.0
17/07:30am 13.1 11.7 8.8 75 2.2 SSE 6 7 3 4 1022.1 - 0.0
17/07:00am 11.1 9.2 7.6 79 1.7 SSE 7 9 4 5 1021.9 - 0.0
17/06:30am 11.7 11.1 7.6 76 2.0 CALM 0 0 0 0 1021.6 - 0.0
17/06:00am 10.3 9.5 6.5 77 1.8 E 0 0 0 0 1021.3 1020.6 0.0
17/05:30am 12.4 10.5 7.5 72 2.4 S 7 9 4 5 1020.9 - 0.0
17/05:00am 12.2 10.3 7.7 74 2.2 S 7 9 4 5 1020.6 - 0.0
17/04:30am 12.4 11.8 7.5 72 2.4 CALM 0 0 0 0 1020.6 - 0.0
17/04:00am 11.8 11.1 7.1 73 2.3 ESE 0 0 0 0 1020.5 - 0.0
17/03:30am 12.3 10.9 7.4 72 2.4 ESE 4 7 2 4 1020.4 - 0.0
17/03:00am 12.6 10.8 7.3 70 2.6 S 6 9 3 5 1020.4 1019.8 0.0
17/02:30am 12.5 10.8 7.4 71 2.5 SSE 6 7 3 4 1020.5 - 0.0
17/02:00am 12.9 11.5 7.1 68 2.8 SE 4 9 2 5 1020.6 - 0.0
17/01:30am 13.0 12.4 7.2 68 2.9 CALM 0 0 0 0 1020.9 - 0.0
17/01:00am 13.8 11.8 7.3 65 3.2 SE 7 9 4 5 1021.1 - 0.0
17/12:30am 14.3 12.9 7.1 62 3.6 S 4 7 2 4 1021.2 - 0.0
17/12:00am 14.9 14.2 7.0 59 3.9 ESE 0 0 0 0 1021.2 1020.5 0.0
 
Date/Time
CST
Temp
°C
App
Temp
°C
Dew
Point
Rel
Hum
%
Delta-T
°C
Wind Press
QNH
hPa
Press
MSL
hPa
Rain
since 9 am
mm
Dir
 
Spd
km/h
Gust
km/h
Spd
kts
Gust
kts
16/11:30pm 14.8 14.0 6.6 58 4.0 CALM 0 0 0 0 1021.3 - 0.0
16/11:00pm 14.2 13.6 7.3 63 3.4 CALM 0 7 0 4 1021.4 - 0.0
16/10:30pm 15.7 14.6 7.0 56 4.3 SE 2 6 1 3 1021.5 - 0.0
16/10:00pm 17.1 16.0 6.9 51 5.1 SE 2 7 1 4 1021.5 - 0.0
16/09:30pm 16.7 14.8 7.4 54 4.7 SSE 7 11 4 6 1021.4 - 0.0
16/09:00pm 16.8 16.2 7.4 54 4.7 CALM 0 0 0 0 1021.1 1020.4 0.0
16/08:30pm 17.1 15.1 7.2 52 5.0 S 7 11 4 6 1021.0 - 0.0
16/08:00pm 17.7 16.0 7.4 51 5.3 S 6 7 3 4 1020.9 - 0.0
16/07:30pm 18.6 17.2 7.1 47 5.9 S 4 9 2 5 1020.6 - 0.0
16/07:00pm 19.2 16.3 6.7 44 6.4 SSW 11 13 6 7 1020.4 - 0.0
16/06:30pm 19.9 16.6 6.3 41 6.9 SSW 13 15 7 8 1020.0 - 0.0
16/06:00pm 21.2 17.8 5.9 37 7.7 SSW 13 17 7 9 1019.6 1019.0 0.0
16/05:30pm 22.7 18.5 5.6 33 8.7 SSW 17 24 9 13 1019.4 - 0.0
16/05:00pm 23.9 20.2 6.2 32 9.2 SW 15 24 8 13 1019.3 - 0.0
16/04:30pm 24.3 20.3 6.6 32 9.3 SW 17 24 9 13 1019.1 - 0.0
16/04:00pm 25.1 22.0 7.3 32 9.5 SW 13 24 7 13 1018.9 - 0.0
16/03:30pm 24.6 22.2 6.8 32 9.4 WSW 9 20 5 11 1018.8 - 0.0
16/03:00pm 24.7 21.7 6.0 30 9.7 W 11 20 6 11 1019.1 1018.4 0.0
16/02:30pm 24.3 21.3 6.1 31 9.4 WSW 11 19 6 10 1019.3 - 0.0
16/02:00pm 24.2 21.3 6.5 32 9.2 S 11 19 6 10 1019.5 - 0.0
16/01:30pm 24.5 21.8 7.2 33 9.2 WSW 11 20 6 11 1019.9 - 0.0
16/01:00pm 24.6 21.5 7.3 33 9.2 WSW 13 20 7 11 1020.1 - 0.0
16/12:30pm 24.0 22.0 7.2 34 8.9 SW 7 17 4 9 1020.5 - 0.0
16/12:00pm 23.6 21.6 7.3 35 8.6 S 7 11 4 6 1021.0 1020.3 0.0
16/11:30am 22.9 21.3 7.8 38 8.0 WNW 6 15 3 8 1021.6 - 0.0
16/11:00am 22.0 19.7 7.4 39 7.6 S 9 15 5 8 1021.9 - 0.0
16/10:30am 21.8 19.8 7.2 39 7.6 SW 7 19 4 10 1021.9 - 0.0
16/10:00am 21.8 20.1 7.6 40 7.5 S 6 11 3 6 1022.0 - 0.0
16/09:30am 21.4 19.4 7.3 40 7.3 ENE 7 11 4 6 1022.1 - 0.0
16/09:00am 19.6 17.7 8.9 50 5.7 ESE 9 13 5 7 1022.2 1021.5 0.0
16/08:30am 17.8 15.9 8.9 56 4.7 ESE 9 11 5 6 1022.0 - 0.0
16/08:00am 15.2 14.3 9.1 67 3.2 S 4 7 2 4 1022.0 - 0.0
16/07:30am 13.7 13.2 9.2 74 2.3 SE 2 7 1 4 1021.6 - 0.0
16/07:00am 12.0 10.4 8.7 80 1.7 S 7 9 4 5 1021.4 - 0.0
16/06:30am 11.4 11.0 8.1 80 1.6 CALM 0 0 0 0 1021.2 - 0.0
16/06:00am 12.0 11.2 8.1 77 1.9 S 2 7 1 4 1021.1 1020.4 0.0
16/05:30am 12.2 10.6 7.9 75 2.1 SSE 6 9 3 5 1020.9 - 0.0
16/05:00am 11.9 10.2 8.2 78 1.8 SE 7 11 4 6 1020.5 - 0.0
16/04:30am 12.7 10.6 8.2 74 2.3 ESE 9 11 5 6 1020.4 - 0.0
16/04:00am 12.9 12.1 8.2 73 2.4 SSE 2 7 1 4 1020.3 - 0.0
16/03:30am 13.1 11.9 8.2 72 2.5 SSE 4 9 2 5 1020.2 - 0.0
16/03:00am 12.1 10.5 8.8 80 1.7 S 7 9 4 5 1020.1 1019.5 0.0
16/02:30am 13.0 11.4 8.9 76 2.1 ESE 7 9 4 5 1019.9 - 0.0
16/02:00am 13.0 11.1 8.9 76 2.1 ESE 9 13 5 7 1020.4 - 0.0
16/01:30am 13.4 10.7 8.9 74 2.3 ESE 13 13 7 7 1020.6 - 0.0
16/01:00am 13.5 11.6 9.0 74 2.3 E 9 11 5 6 1020.9 - 0.0
16/12:30am 14.3 12.0 8.9 70 2.8 ESE 11 13 6 7 1021.0 - 0.0
16/12:00am 15.1 13.1 8.8 66 3.2 ESE 9 11 5 6 1021.0 1020.3 0.0
 
Date/Time
CST
Temp
°C
App
Temp
°C
Dew
Point
Rel
Hum
%
Delta-T
°C
Wind Press
QNH
hPa
Press
MSL
hPa
Rain
since 9 am
mm
Dir
 
Spd
km/h
Gust
km/h
Spd
kts
Gust
kts
15/11:30pm 15.3 13.8 9.0 66 3.3 ESE 7 9 4 5 1021.1 - 0.0
15/11:00pm 16.4 14.8 8.9 61 3.9 S 7 9 4 5 1021.3 - 0.0
15/10:30pm 16.4 14.5 8.9 61 3.9 S 9 11 5 6 1021.5 - 0.0
15/10:00pm 17.0 14.7 8.9 59 4.2 S 11 17 6 9 1021.5 - 0.0
15/09:30pm 17.0 15.1 8.9 59 4.2 SSW 9 11 5 6 1021.4 - 0.0
15/09:00pm 17.4 15.1 9.1 58 4.4 SSW 11 15 6 8 1021.1 1020.4 0.0
15/08:30pm 17.5 17.4 9.4 59 4.3 CALM 0 6 0 3 1020.7 - 0.0
15/08:00pm 18.2 15.9 9.0 55 4.9 ESE 11 13 6 7 1020.5 - 0.0
15/07:30pm 18.7 16.1 9.2 54 5.0 ESE 13 15 7 8 1020.1 - 0.0
15/07:00pm 19.3 17.1 9.2 52 5.4 ESE 11 15 6 8 1019.8 - 0.0
15/06:30pm 20.7 20.2 8.0 44 6.7 CALM 0 6 0 3 1019.6 - 0.0
15/06:00pm 22.0 21.4 7.4 39 7.6 CALM 0 0 0 0 1019.4 1018.7 0.0
15/05:30pm 23.0 21.1 6.7 35 8.5 S 6 11 3 6 1019.1 - 0.0
15/05:00pm 23.5 21.0 6.7 34 8.8 SSW 9 22 5 12 1019.3 - 0.0
15/04:30pm 23.5 21.0 6.7 34 8.8 SSE 9 13 5 7 1019.2 - 0.0
15/04:00pm 24.3 22.8 7.0 33 9.1 SW 4 11 2 6 1019.1 - 0.0
15/03:30pm 23.9 22.1 7.1 34 8.9 SE 6 13 3 7 1019.1 - 0.0
15/03:00pm 23.8 21.0 7.0 34 8.8 SE 11 20 6 11 1019.1 1018.4 0.0
15/02:30pm 23.2 20.4 6.9 35 8.5 SE 11 19 6 10 1019.5 - 0.0
15/02:00pm 24.0 22.3 7.6 35 8.7 E 6 13 3 7 1019.5 - 0.0
15/01:30pm 24.2 22.5 7.4 34 8.9 ENE 6 26 3 14 1019.7 - 0.0
15/01:00pm 22.6 20.2 6.8 36 8.2 ESE 9 17 5 9 1020.0 - 0.0
15/12:30pm 23.3 19.8 7.4 36 8.4 E 15 26 8 14 1020.2 - 0.0
15/12:00pm 23.3 19.6 7.8 37 8.2 E 17 30 9 16 1020.6 1020.0 0.0
15/11:30am 22.8 18.6 8.1 39 7.8 E 20 28 11 15 1021.0 - 0.0
15/11:00am 22.6 18.0 8.3 40 7.6 ESE 22 30 12 16 1021.4 - 0.0
15/10:30am 21.7 16.7 8.2 42 7.2 ESE 24 30 13 16 1021.6 - 0.0
15/10:00am 21.0 16.1 8.3 44 6.7 ESE 24 33 13 18 1021.7 - 0.0
15/09:30am 20.8 15.6 8.8 46 6.4 E 26 33 14 18 1021.8 - 0.0
15/09:00am 19.9 16.1 8.9 49 5.8 ESE 19 26 10 14 1021.9 1021.2 0.0
15/08:30am 18.4 16.0 8.7 53 5.1 ESE 11 17 6 9 1021.9 - 0.0
15/08:00am 17.1 13.9 8.5 57 4.5 ESE 15 19 8 10 1021.6 - 0.0
15/07:30am 16.0 13.1 8.2 60 4.0 ESE 13 17 7 9 1021.4 - 0.0
15/07:00am 14.6 11.6 7.9 64 3.4 ESE 13 17 7 9 1021.0 - 0.0
15/06:30am 14.4 11.4 7.9 65 3.3 SE 13 17 7 9 1020.5 - 0.0
15/06:00am 14.3 12.1 7.8 65 3.3 SE 9 15 5 8 1020.4 1019.8 0.0
15/05:30am 14.5 12.3 8.0 65 3.3 SE 9 17 5 9 1020.3 - 0.0
15/05:00am 14.6 12.5 8.1 65 3.3 SSE 9 17 5 9 1020.2 - 0.0
15/04:30am 14.6 12.5 8.1 65 3.3 SE 9 17 5 9 1020.0 - 0.0
15/04:00am 15.1 12.2 8.1 63 3.6 SE 13 20 7 11 1019.9 - 0.0
15/03:30am 15.3 12.9 8.5 64 3.5 SE 11 19 6 10 1019.9 - 0.0
15/03:00am 15.6 12.9 9.1 65 3.4 SSE 13 20 7 11 1019.9 1019.3 0.0
15/02:30am 15.8 13.2 9.2 65 3.4 SE 13 20 7 11 1019.7 - 0.0
15/02:00am 16.0 13.0 9.4 65 3.5 SE 15 20 8 11 1019.9 - 0.0
15/01:30am 16.3 13.4 9.5 64 3.6 SE 15 22 8 12 1020.2 - 0.0
15/01:00am 16.8 13.1 9.5 62 3.9 SE 19 26 10 14 1020.3 - 0.0
15/12:30am 14.2 12.0 9.4 73 2.5 ESE 11 15 6 8 1020.2 - 0.0
15/12:00am 14.2 12.0 9.2 72 2.6 ESE 11 15 6 8 1020.2 1019.6 0.0
 
Date/Time
CST
Temp
°C
App
Temp
°C
Dew
Point
Rel
Hum
%
Delta-T
°C
Wind Press
QNH
hPa
Press
MSL
hPa
Rain
since 9 am
mm
Dir
 
Spd
km/h
Gust
km/h
Spd
kts
Gust
kts
14/11:30pm 14.7 12.9 9.3 70 2.8 ESE 9 11 5 6 1020.4 - 0.0
14/11:00pm 15.2 14.4 9.6 69 2.9 SSE 4 7 2 4 1020.4 - 0.0
14/10:30pm 15.2 15.2 9.8 70 2.8 CALM 0 0 0 0 1020.4 - 0.0
14/10:00pm 15.4 15.4 9.7 69 3.0 CALM 0 0 0 0 1020.5 - 0.0
14/09:30pm 16.1 14.4 9.8 66 3.3 ESE 9 11 5 6 1020.4 - 0.0
14/09:00pm 16.4 14.7 10.0 66 3.4 ESE 9 13 5 7 1020.4 1019.8 0.0
14/08:30pm 17.6 14.7 9.8 60 4.2 ESE 15 15 8 8 1020.0 - 0.0
14/08:00pm 18.0 15.5 9.6 58 4.5 ESE 13 15 7 8 1019.9 - 0.0
14/07:30pm 18.9 15.9 9.4 54 5.1 ESE 15 17 8 9 1019.7 - 0.0

Other Formats:

Comma delimited format used in spreadsheet applications
http://www.bom.gov.au/fwo/IDS60801/IDS60801.94674.axf

JavaScript Object Notation format (JSON) in row-major order
http://www.bom.gov.au/fwo/IDS60801/IDS60801.94674.json